• Join FlightAware (Why Join?)
  • Login
  • US Flag 
06:17AM EDT


 

Airport Tracker/Info


-or-


 

Live Flight TrackerFlight Track Log ✈ EJA929 ✈ 24-May-2013 ✈ KDAL - KMDW

Flight Track Log - Related Links

Times and Time Zones

All times are in EDT time to prevent confusion due to time zone crossing. See the EJA929 flight status page for this flight to view local times or setup timezone preferences in your user account.

Time Position Orientation Groundspeed Altitude Reporting Facility
EDT Latitude Longitude Course Direction KTS MPH feet Rate Location/Type
05:33AM 32.8333 -96.8333 128° Southeast 176 203 1,300  Level Dallas / Fort Worth TRACON
05:34AM 32.8000 -96.7833 128° Southeast 216 249 5,200 3,480 Climbing Dallas / Fort Worth TRACON
05:35AM 32.8500 -96.7167 48° Northeast 242 278 8,700 1,740 Climbing Dallas / Fort Worth TRACON
05:37AM 33.0225 -96.5736 35° Northeast 331 381 11,300 1,260 Climbing Fort Worth Center
05:38AM 33.1078 -96.4983 36° Northeast 364 419 13,000 1,680 Climbing Fort Worth Center
05:39AM 33.1844 -96.4281 37° Northeast 382 440 14,700 1,560 Climbing Fort Worth Center
05:40AM 33.2819 -96.3425 36° Northeast 387 445 16,200 1,260 Climbing Fort Worth Center
05:41AM 33.3606 -96.2744 36° Northeast 387 445 17,300 1,200 Climbing Fort Worth Center
05:42AM 33.4833 -96.2453 11° North 387 445 18,600 1,200 Climbing Fort Worth Center
05:43AM 33.5789 -96.1992 22° Northeast 398 458 19,800 1,260 Climbing Fort Worth Center
05:44AM 33.6825 -96.1081 36° Northeast 409 471 21,200 1,500 Climbing Fort Worth Center
05:45AM 33.7672 -96.0292 38° Northeast 429 494 22,800 1,320 Climbing Fort Worth Center
05:46AM 33.8789 -95.9325 36° Northeast 434 499 23,900 1,020 Climbing Fort Worth Center
05:47AM 33.9797 -95.8381 38° Northeast 439 505 24,900 1,380 Climbing Fort Worth Center
05:48AM 34.0831 -95.7433 37° Northeast 454 522 26,700 1,620 Climbing Fort Worth Center
05:49AM 34.1881 -95.6508 36° Northeast 460 529 28,200 1,260 Climbing Fort Worth Center
05:50AM 34.2931 -95.5558 37° Northeast 460 529 29,300 1,200 Climbing Fort Worth Center
05:51AM 34.4003 -95.4603 36° Northeast 468 539 30,600 1,440 Climbing Fort Worth Center
05:52AM 34.5092 -95.3597 37° Northeast 480 552 32,200 1,320 Climbing Fort Worth Center
05:54AM 34.7206 -95.1603 38° Northeast 502 578 34,700 1,560 Climbing Kansas City Center
05:55AM 34.8325 -95.0539 38° Northeast 509 586 36,900 2,100 Climbing Kansas City Center
05:56AM 34.8806 -95.0175 32° Northeast 504 580 37,600 1,680 Climbing Memphis Center
05:57AM 34.9908 -94.9144 37° Northeast 499 574 39,200 1,440 Climbing Memphis Center
05:58AM 35.1033 -94.8039 39° Northeast 505 581 40,500 1,020 Climbing Memphis Center
05:58AM 35.1633 -94.7461 38° Northeast 509 586 41,000 480 Climbing Kansas City Center
05:59AM 35.2175 -94.7006 34° Northeast 505 581 41,000  Level Memphis Center
06:00AM 35.3364 -94.5847 38° Northeast 521 600 41,000  Level Memphis Center
06:01AM 35.4567 -94.4736 37° Northeast 536 617 41,000  Level Memphis Center
06:02AM 35.5772 -94.3594 38° Northeast 536 617 41,000  Level Memphis Center
06:03AM 35.6997 -94.2453 37° Northeast 542 624 41,000  Level Memphis Center
06:04AM 35.8181 -94.1306 38° Northeast 547 629 41,000  Level Memphis Center
06:05AM 35.9339 -94.0178 38° Northeast 535 616 41,000  Level Memphis Center
06:06AM 36.0519 -93.9050 38° Northeast 535 616 41,000  Level Memphis Center
06:07AM 36.2347 -93.7261 38° Northeast 535 616 41,000  Level Kansas City Center
06:08AM 36.3511 -93.6142 38° Northeast 531 611 41,000  Level Kansas City Center
06:09AM 36.4664 -93.5011 38° Northeast 528 608 41,000  Level Kansas City Center
06:10AM 36.5825 -93.3889 38° Northeast 528 608 41,000  Level Kansas City Center
06:11AM 36.6997 -93.2744 38° Northeast 532 612 41,000  Level Kansas City Center
06:12AM 36.8383 -93.1356 39° Northeast 533 613 41,000  Level Kansas City Center
06:13AM 36.9411 -93.0353 38° Northeast 531 611 41,000  Level Kansas City Center
06:14AM 37.0567 -92.9203 38° Northeast 529 609 41,000  Level Kansas City Center
06:15AM 37.1725 -92.8044 39° Northeast 532 612 41,000  Level Kansas City Center
06:16AM 37.2861 -92.6889 39° Northeast 527 606 41,000  Level Kansas City Center
06:17AM 37.4014 -92.5731 39° Northeast 528 608 41,000  Level Kansas City Center
06:18AM 37.5147 -92.4547 40° Northeast 527 606 41,000  Level Kansas City Center
06:19AM 37.6294 -92.3400 38° Northeast 527 606 41,000  Level Kansas City Center
06:20AM 37.7472 -92.2194 39° Northeast 526 605 41,000  Level Kansas City Center
06:21AM 37.8594 -92.1006 40° Northeast 527 606 41,000  Level Kansas City Center
06:22AM 37.9889 -91.9700 38° Northeast 529 609 41,000  Level Kansas City Center
06:23AM 38.1033 -91.8525 39° Northeast 529 609 41,000  Level Kansas City Center
06:25AM 38.2169 -91.7339 39° Northeast 530 610 41,000  Level Kansas City Center
06:26AM 38.3314 -91.6147 39° Northeast 531 611 41,000  Level Kansas City Center
06:27AM 38.4442 -91.4958 40° Northeast 527 606 41,000  Level Kansas City Center
06:28AM 38.5567 -91.3786 39° Northeast 523 602 41,000  Level Kansas City Center
06:29AM 38.6569 -91.2733 39° Northeast 526 605 41,000  Level Kansas City Center
06:30AM 38.7761 -91.1686 34° Northeast 520 598 41,000  Level Kansas City Center
06:31AM 38.8886 -91.0483 40° Northeast 522 601 41,000  Level Kansas City Center
06:32AM 39.0117 -90.9458 33° Northeast 524 603 41,000  Level Kansas City Center
06:33AM 39.1397 -90.8619 27° Northeast 516 594 41,000  Level Kansas City Center
06:34AM 39.2653 -90.7761 28° Northeast 510 587 41,000  Level Kansas City Center
06:35AM 39.3914 -90.6897 28° Northeast 512 589 41,000  Level Kansas City Center
06:36AM 39.5142 -90.6050 28° Northeast 504 580 41,000  Level Kansas City Center
06:37AM 39.6369 -90.5214 28° Northeast 500 575 41,000  Level Kansas City Center
06:38AM 39.7619 -90.4369 27° Northeast 499 574 41,000  Level Kansas City Center
06:39AM 39.8847 -90.3517 28° Northeast 501 577 41,000  Level Kansas City Center
06:40AM 40.0078 -90.2658 28° Northeast 502 578 41,000  Level Kansas City Center
06:41AM 40.1308 -90.1803 28° Northeast 501 577 41,000 -720 Level Kansas City Center
06:42AM 40.2525 -90.0947 28° Northeast 499 574 39,600 -2,280 Descending Kansas City Center
06:42AM 40.3228 -90.0461 28° Northeast 488 562 37,400 -3,360 Descending Chicago Center
06:43AM 40.4317 -89.9697 28° Northeast 451 519 34,300 -3,240 Descending Chicago Center
06:44AM 40.5489 -89.8856 29° Northeast 454 522 30,900 -3,420 Descending Chicago Center
06:45AM 40.6633 -89.8017 29° Northeast 468 539 27,400 -3,360 Descending Chicago Center
06:46AM 40.7408 -89.6550 55° Northeast 484 557 24,200 -1,740 Descending Chicago Center
06:47AM 40.8103 -89.4925 61° Northeast 474 545 24,000 -540 Descending Chicago Center
06:48AM 40.8775 -89.3433 59° Northeast 472 543 23,200 -1,440 Descending Chicago Center
06:49AM 40.9519 -89.2292 49° Northeast 411 473 21,100 -2,340 Descending Chicago Center
06:50AM 41.0342 -89.1031 49° Northeast 408 470 18,600 -2,880 Descending Chicago Center
06:51AM 41.1086 -88.9931 48° Northeast 399 459 15,400 -3,300 Descending Chicago Center
06:52AM 41.1789 -88.8858 49° Northeast 390 449 12,000 -2,460 Descending Chicago Center
06:53AM 41.2414 -88.7892 49° Northeast 347 399 10,500 -1,500 Descending Chicago Center
06:54AM 41.2911 -88.7119 49° Northeast 283 326 9,000 -1,680 Descending Chicago Center
06:55AM 41.3292 -88.6275 59° Northeast 268 308 7,200 -1,500 Descending Chicago Center
06:56AM 41.3642 -88.5447 61° Northeast 258 297 6,000 -600 Descending Chicago Center
06:57AM 41.4000 -88.4633 60° Northeast 256 295 6,000  Level Chicago Center
06:58AM 41.4353 -88.3811 60° Northeast 256 295 6,000  Level Chicago Center
06:59AM 41.4703 -88.2989 60° Northeast 255 293 6,000 -540 Level Chicago Center
07:00AM 41.5058 -88.2158 60° Northeast 256 295 5,000 -1,020 Descending Chicago Center
07:01AM 41.5422 -88.1317 60° Northeast 259 298 4,000 -540 Descending Chicago Center
07:02AM 41.5769 -88.0525 60° Northeast 251 289 4,000  Level Chicago Center
07:03AM 41.6100 -87.9744 60° Northeast 245 282 4,000  Level Chicago Center
07:04AM 41.6575 -87.9125 44° Northeast 244 281 4,000 -480 Level Chicago Center
07:05AM 41.6944 -87.8678 42° Northeast 207 238 3,100 -900 Descending Chicago Center
07:06AM 41.7239 -87.8306 43° Northeast 171 197 2,300 -780 Descending Chicago Center
07:07AM 41.7494 -87.7975 44° Northeast 148 170 1,600 -660 Descending Chicago Center
07:08AM 41.7731 -87.7669 44° Northeast 130 150 1,000 -600 Descending Chicago Center
07:10AM 41.7833 -87.7500 North  Level FlightAware Approximate